Terminal Aerodrome Forecast
Issued by NWS

Home | Current Version | Previous Version | Text Only | Print | Product List | Glossary On
Versions: 1 2 3 4 5 6 7 8 9 10 11 12 13 14 15 16 17 18
000
FTUS41 KGYX 061720
TAFPSM
TAF
KPSM 061720Z 0618/0718 16006KT P6SM FEW040 BKN250
     FM071200 16003KT P6SM BKN100
     FM071500 15006KT P6SM -SHRA OVC050=

USA.gov is the U.S. government's official web portal to all federal, state and local government web resources and services.